Time;durP1;ratioP1;P1;durP2;ratioP2;P2;SDS_P1;SDS_P2;PMS_P1;PMS_P2;Temp;Humidity;BMP_temperature;BMP_pressure;BME280_temperature;BME280_humidity;BME280_pressure;Samples;Min_cycle;Max_cycle;Signal;HPM_P1;HPM_P2
2021/06/03 00:00:37;;;;;;;4.13;3.80;;;;;;;20.66;65.54;99570.66;4934128;29;20477;-72
2021/06/03 00:03:03;;;;;;;4.23;3.93;;;;;;;20.68;65.64;99569.47;4933933;29;20469;-72
2021/06/03 00:05:31;;;;;;;4.20;3.90;;;;;;;20.64;65.75;99573.53;4935626;29;20919;-72
2021/06/03 00:07:58;;;;;;;5.00;3.90;;;;;;;20.70;65.75;99561.13;4934451;29;20440;-72
2021/06/03 00:10:26;;;;;;;4.20;3.80;;;;;;;20.79;65.37;99566.53;4934308;29;20440;-73
2021/06/03 00:12:54;;;;;;;6.83;4.47;;;;;;;20.86;64.94;99558.53;4933917;29;20483;-73
2021/06/03 00:15:20;;;;;;;9.03;6.70;;;;;;;20.79;65.50;99561.03;4937259;29;20529;-73
2021/06/03 00:17:46;;;;;;;5.33;4.83;;;;;;;20.56;66.59;99567.97;4937508;29;20535;-74
2021/06/03 00:20:16;;;;;;;5.47;4.97;;;;;;;20.66;66.43;99570.66;4937337;29;20432;-73
2021/06/03 00:22:42;;;;;;;7.00;5.40;;;;;;;20.66;66.44;99576.97;4937555;29;20576;-73
2021/06/03 00:25:09;;;;;;;5.17;4.70;;;;;;;20.58;66.44;99572.28;4937439;29;20463;-73
2021/06/03 00:27:35;;;;;;;5.43;4.93;;;;;;;20.50;66.87;99574.03;4937080;29;20521;-73
2021/06/03 00:30:03;;;;;;;7.13;4.77;;;;;;;20.29;67.45;99566.97;4938592;29;20792;-73
2021/06/03 00:32:29;;;;;;;4.87;4.40;;;;;;;20.10;68.77;99575.25;4937115;29;20445;-72
2021/06/03 00:34:56;;;;;;;5.27;4.77;;;;;;;19.91;69.61;99568.00;4937542;29;20974;-72
2021/06/03 00:37:22;;;;;;;4.90;4.40;;;;;;;19.84;70.41;99575.94;4937469;29;20437;-73
2021/06/03 00:39:48;;;;;;;5.07;4.63;;;;;;;19.67;70.96;99574.81;4937303;29;20451;-73
2021/06/03 00:42:14;;;;;;;4.95;4.45;;;;;;;19.56;71.38;99566.81;4937201;29;20511;-73
2021/06/03 00:44:40;;;;;;;4.70;4.30;;;;;;;19.46;72.14;99564.06;4937346;29;20694;-74
2021/06/03 00:47:08;;;;;;;4.65;4.25;;;;;;;19.59;71.74;99574.69;4937220;29;20709;-73
2021/06/03 00:49:34;;;;;;;5.35;4.45;;;;;;;19.87;70.53;99575.63;4937024;29;20575;-74
2021/06/03 00:52:00;;;;;;;4.22;3.83;;;;;;;20.03;69.69;99579.59;4937094;29;20193;-74
2021/06/03 00:54:26;;;;;;;4.45;4.10;;;;;;;20.11;69.25;99577.00;4944749;29;20203;-73
2021/06/03 00:56:52;;;;;;;4.88;4.38;;;;;;;20.03;69.59;99574.13;4955810;29;20196;-73
2021/06/03 00:59:18;;;;;;;5.10;4.23;;;;;;;19.99;69.70;99581.78;4955960;29;20192;-73
2021/06/03 01:01:45;;;;;;;5.22;4.72;;;;;;;19.93;70.09;99585.13;4955613;29;20448;-74
2021/06/03 01:04:17;;;;;;;6.18;4.18;;;;;;;20.02;69.68;99584.22;4955783;28;20248;-73
2021/06/03 01:06:43;;;;;;;5.25;4.85;;;;;;;19.94;70.01;99586.81;4955793;29;20202;-73
2021/06/03 01:09:16;;;;;;;4.60;4.30;;;;;;;19.86;70.68;99582.13;4955707;29;20208;-73
2021/06/03 01:11:48;;;;;;;4.93;4.45;;;;;;;19.86;70.71;99579.38;4955804;29;20254;-73
2021/06/03 01:14:20;;;;;;;5.30;4.80;;;;;;;19.77;70.93;99575.66;4951641;29;20192;-73
2021/06/03 01:16:49;;;;;;;5.10;4.60;;;;;;;19.74;71.48;99580.56;4955739;29;20431;-73
2021/06/03 01:19:23;;;;;;;4.78;4.38;;;;;;;19.74;71.29;99578.72;4955342;29;20428;-73
2021/06/03 01:21:53;;;;;;;5.07;4.57;;;;;;;19.73;71.59;99576.97;4955369;29;20188;-73
2021/06/03 01:24:25;;;;;;;10.63;4.70;;;;;;;19.73;71.69;99574.25;4936170;29;20228;-74
2021/06/03 01:26:54;;;;;;;5.60;4.90;;;;;;;20.00;70.57;99587.09;4936874;29;20951;-72
2021/06/03 01:29:21;;;;;;;5.13;4.70;;;;;;;19.92;70.80;99589.72;4936036;29;20479;-73
2021/06/03 01:31:49;;;;;;;5.43;4.80;;;;;;;20.05;70.12;99588.50;4936362;29;20429;-73
2021/06/03 01:34:16;;;;;;;5.00;4.50;;;;;;;20.35;68.78;99584.63;4936134;29;21008;-73
2021/06/03 01:36:42;;;;;;;5.23;4.73;;;;;;;20.42;68.40;99583.03;4936035;29;20492;-73
2021/06/03 01:39:10;;;;;;;5.47;4.57;;;;;;;20.45;68.39;99585.44;4937617;29;20491;-74
2021/06/03 01:41:37;;;;;;;5.20;4.70;;;;;;;20.37;68.68;99578.00;4935671;29;20429;-74
2021/06/03 01:44:05;;;;;;;5.10;4.57;;;;;;;20.36;68.77;99581.75;4936036;29;20910;-73
2021/06/03 01:46:32;;;;;;;5.23;4.70;;;;;;;20.35;68.79;99577.31;4936048;29;20435;-73
2021/06/03 01:48:58;;;;;;;5.17;4.77;;;;;;;20.36;68.62;99578.16;4935895;29;20515;-73
2021/06/03 01:51:25;;;;;;;5.23;4.73;;;;;;;20.33;68.75;99582.06;4935929;29;20483;-73
2021/06/03 01:53:52;;;;;;;5.03;4.60;;;;;;;20.36;68.74;99575.41;4935899;29;20781;-73
2021/06/03 01:56:18;;;;;;;4.73;4.43;;;;;;;20.31;69.22;99583.22;4936062;29;20660;-73
2021/06/03 01:58:47;;;;;;;5.43;4.87;;;;;;;20.31;69.08;99573.16;4935826;29;20453;-73
2021/06/03 02:01:14;;;;;;;5.50;4.40;;;;;;;20.30;68.89;99570.56;4936593;29;20436;-73
2021/06/03 02:03:40;;;;;;;4.77;4.37;;;;;;;20.25;69.36;99575.63;4935521;29;20499;-73
2021/06/03 02:06:07;;;;;;;5.17;4.70;;;;;;;20.06;70.23;99576.56;4952718;29;20447;-73
2021/06/03 02:08:34;;;;;;;5.30;4.90;;;;;;;20.12;69.84;99589.63;4954738;28;20470;-73
2021/06/03 02:11:00;;;;;;;5.73;4.40;;;;;;;20.19;69.73;99583.44;4953836;29;20546;-73
2021/06/03 02:13:31;;;;;;;4.80;4.30;;;;;;;20.08;70.12;99582.72;4935877;29;20926;-73
2021/06/03 02:16:03;;;;;;;5.13;4.73;;;;;;;19.97;70.76;99572.88;4935587;29;20895;-73
2021/06/03 02:18:34;;;;;;;5.07;4.50;;;;;;;20.03;70.56;99577.72;4935693;29;20899;-72
2021/06/03 02:21:01;;;;;;;7.23;5.03;;;;;;;19.98;70.75;99585.53;4935287;29;20426;-73
2021/06/03 02:23:28;;;;;;;5.10;4.70;;;;;;;20.06;70.43;99573.81;4935335;29;20804;-73
2021/06/03 02:25:57;;;;;;;4.77;4.30;;;;;;;20.09;70.30;99589.94;4935243;29;20931;-74
2021/06/03 02:28:23;;;;;;;6.30;5.70;;;;;;;20.07;70.63;99586.50;4954332;29;20830;-74
2021/06/03 02:30:50;;;;;;;8.43;4.83;;;;;;;20.09;70.37;99588.06;4954533;29;20803;-74
2021/06/03 02:33:17;;;;;;;6.57;5.90;;;;;;;20.24;69.98;99588.44;4954554;28;20567;-74
2021/06/03 02:35:45;;;;;;;6.90;6.20;;;;;;;20.27;69.80;99590.84;4954031;28;20475;-74
2021/06/03 02:38:12;;;;;;;5.60;5.10;;;;;;;20.22;69.94;99584.13;4953972;29;20433;-73
2021/06/03 02:40:39;;;;;;;6.67;4.97;;;;;;;20.14;70.35;99587.59;4954083;29;20857;-73
2021/06/03 02:43:05;;;;;;;4.77;4.37;;;;;;;20.03;71.02;99598.72;4954295;29;20850;-73
2021/06/03 02:45:32;;;;;;;5.37;4.87;;;;;;;19.84;71.81;99592.31;4954314;28;20511;-73
2021/06/03 02:48:00;;;;;;;5.17;4.67;;;;;;;19.61;72.89;99591.78;4954368;29;20516;-74
2021/06/03 02:50:28;;;;;;;7.27;5.03;;;;;;;19.76;72.63;99598.56;4954176;29;20454;-73
2021/06/03 02:52:55;;;;;;;6.20;4.97;;;;;;;19.83;72.28;99596.09;4954070;28;20470;-73
2021/06/03 02:55:23;;;;;;;5.67;5.07;;;;;;;20.03;71.48;99594.13;4939522;28;20280;-73
2021/06/03 02:57:49;;;;;;;5.30;4.80;;;;;;;20.07;71.24;99595.53;4934672;29;20437;-73
2021/06/03 03:00:18;;;;;;;5.43;4.50;;;;;;;20.04;71.34;99598.59;4934623;29;20481;-73
2021/06/03 03:02:45;;;;;;;5.67;5.07;;;;;;;20.06;71.16;99603.88;4935123;29;21299;-73
2021/06/03 03:05:11;;;;;;;6.47;4.60;;;;;;;20.02;71.67;99592.41;4935135;29;20445;-73
2021/06/03 03:07:39;;;;;;;5.60;5.10;;;;;;;20.02;71.45;99597.88;4934934;29;20801;-72
2021/06/03 03:10:08;;;;;;;5.47;5.00;;;;;;;20.08;71.35;99599.13;4935162;29;20456;-73
2021/06/03 03:12:34;;;;;;;5.93;5.30;;;;;;;20.01;71.63;99582.47;4934771;29;20824;-72
2021/06/03 03:15:00;;;;;;;5.33;4.83;;;;;;;19.88;72.27;99593.75;4935102;29;20528;-73
2021/06/03 03:17:29;;;;;;;7.97;4.93;;;;;;;19.78;72.77;99599.22;4941735;29;20444;-72
2021/06/03 03:19:55;;;;;;;8.90;5.33;;;;;;;19.56;74.15;99594.09;4953933;29;20936;-72
2021/06/03 03:22:21;;;;;;;5.17;4.67;;;;;;;19.65;73.75;99601.41;4954122;29;21123;-72
2021/06/03 03:24:49;;;;;;;5.30;4.80;;;;;;;19.75;73.12;99602.28;4953696;29;20464;-73
2021/06/03 03:27:15;;;;;;;6.80;5.33;;;;;;;19.71;73.31;99605.44;4954205;28;20447;-73
2021/06/03 03:29:42;;;;;;;5.20;4.80;;;;;;;19.52;74.19;99590.81;4953943;29;20470;-74
2021/06/03 03:32:08;;;;;;;5.60;5.20;;;;;;;19.62;74.09;99589.91;4954004;29;20455;-73
2021/06/03 03:34:35;;;;;;;7.03;4.93;;;;;;;19.41;74.75;99587.38;4953614;28;20431;-73
2021/06/03 03:37:01;;;;;;;5.37;4.33;;;;;;;19.34;75.42;99585.22;4953917;29;20421;-74
2021/06/03 03:39:27;;;;;;;5.50;5.00;;;;;;;19.31;75.87;99585.53;4953475;29;20499;-73
2021/06/03 03:41:55;;;;;;;7.40;4.87;;;;;;;19.36;75.53;99594.13;4953364;29;20892;-73
2021/06/03 03:44:21;;;;;;;5.35;4.88;;;;;;;19.34;75.89;99593.41;4953817;29;20467;-73
2021/06/03 03:46:47;;;;;;;5.93;5.43;;;;;;;19.46;75.33;99591.38;4953656;29;20211;-73
2021/06/03 03:49:13;;;;;;;5.90;5.30;;;;;;;19.42;75.35;99587.22;4955042;28;20227;-73
2021/06/03 03:51:39;;;;;;;6.07;5.57;;;;;;;19.35;75.84;99606.03;4957402;29;20541;-73
2021/06/03 03:54:06;;;;;;;5.68;5.18;;;;;;;19.45;75.45;99597.84;4957374;28;20298;-73
2021/06/03 03:56:32;;;;;;;5.43;4.93;;;;;;;19.38;75.72;99608.50;4957158;29;20283;-73
2021/06/03 03:58:59;;;;;;;5.90;5.40;;;;;;;19.47;75.63;99606.78;4957232;28;20677;-73
2021/06/03 04:01:28;;;;;;;5.80;5.20;;;;;;;19.41;75.73;99606.50;4956931;28;20209;-73
2021/06/03 04:03:54;;;;;;;7.18;5.60;;;;;;;19.46;75.76;99612.38;4957025;29;20259;-73
2021/06/03 04:06:21;;;;;;;6.95;5.75;;;;;;;19.42;75.76;99614.50;4956759;28;20204;-73
2021/06/03 04:08:47;;;;;;;6.25;5.75;;;;;;;19.44;75.83;99609.78;4956727;29;20294;-73
2021/06/03 04:11:13;;;;;;;7.07;5.10;;;;;;;19.50;75.63;99619.25;4956405;29;20302;-74
2021/06/03 04:13:39;;;;;;;6.03;5.32;;;;;;;19.43;75.78;99629.91;4956610;29;20279;-73
2021/06/03 04:16:07;;;;;;;6.55;5.00;;;;;;;19.49;75.98;99634.78;4956905;29;20265;-73
2021/06/03 04:18:33;;;;;;;15.97;13.73;;;;;;;19.52;75.47;99630.91;4956512;29;20320;-73
2021/06/03 04:20:59;;;;;;;7.13;5.07;;;;;;;19.42;75.98;99628.16;4956618;29;20921;-73
2021/06/03 04:23:26;;;;;;;5.93;5.43;;;;;;;19.61;75.43;99627.28;4956744;28;20251;-73
2021/06/03 04:25:52;;;;;;;5.90;5.30;;;;;;;19.63;75.15;99633.47;4956404;29;20208;-73
2021/06/03 04:28:18;;;;;;;6.07;5.43;;;;;;;19.61;75.53;99635.50;4956809;28;20484;-73
2021/06/03 04:30:45;;;;;;;8.27;5.90;;;;;;;19.64;75.33;99639.78;4956389;29;20204;-73
2021/06/03 04:33:15;;;;;;;6.88;5.32;;;;;;;19.59;75.54;99638.34;4953906;29;20626;-73
2021/06/03 04:35:41;;;;;;;5.70;5.20;;;;;;;19.64;75.55;99632.44;4956649;29;20188;-74
2021/06/03 04:38:07;;;;;;;6.25;5.57;;;;;;;19.55;75.61;99638.78;4956410;29;20215;-73
2021/06/03 04:40:34;;;;;;;6.07;5.20;;;;;;;19.36;76.74;99635.09;4956390;29;20541;-73
2021/06/03 04:43:00;;;;;;;6.20;5.60;;;;;;;19.37;76.83;99634.06;4956379;29;20219;-73
2021/06/03 04:45:27;;;;;;;5.80;5.20;;;;;;;19.45;76.63;99636.09;4956284;29;20209;-73
2021/06/03 04:47:53;;;;;;;6.28;5.05;;;;;;;19.58;75.97;99633.03;4956477;28;20196;-72
2021/06/03 04:50:22;;;;;;;5.70;5.10;;;;;;;19.58;75.77;99635.75;4956202;28;20705;-73
2021/06/03 04:52:49;;;;;;;6.55;5.60;;;;;;;19.65;75.67;99636.03;4956278;29;20972;-73
2021/06/03 04:55:18;;;;;;;6.55;5.95;;;;;;;19.82;74.92;99637.22;4956218;28;20542;-73
2021/06/03 04:57:45;;;;;;;5.70;5.20;;;;;;;19.85;74.65;99645.09;4955761;29;20259;-73
2021/06/03 05:00:14;;;;;;;5.70;5.20;;;;;;;19.97;73.91;99650.25;4954384;28;20219;-73
2021/06/03 05:02:41;;;;;;;5.97;4.70;;;;;;;20.05;73.58;99660.44;4955925;29;20443;-73
2021/06/03 05:05:09;;;;;;;12.85;5.60;;;;;;;20.07;73.40;99661.13;4955635;29;20491;-73
2021/06/03 05:07:37;;;;;;;5.47;4.65;;;;;;;20.42;72.07;99662.31;4955603;29;20295;-74
2021/06/03 05:10:04;;;;;;;7.40;5.53;;;;;;;20.88;70.17;99668.72;4951813;28;20201;-73
2021/06/03 05:12:30;;;;;;;7.80;5.30;;;;;;;21.17;68.59;99670.41;4949852;29;20468;-73
2021/06/03 05:14:57;;;;;;;6.03;5.40;;;;;;;21.20;68.20;99668.19;4953884;29;20436;-74
2021/06/03 05:17:23;;;;;;;4.50;4.10;;;;;;;21.23;68.48;99667.03;4953799;29;20432;-73
2021/06/03 05:19:49;;;;;;;6.00;5.50;;;;;;;21.26;67.95;99666.72;4955373;29;20443;-74
2021/06/03 05:22:15;;;;;;;7.00;5.47;;;;;;;21.23;67.85;99673.38;4955819;29;20448;-73
2021/06/03 05:24:43;;;;;;;8.53;5.80;;;;;;;21.34;67.69;99669.53;4955664;29;20469;-73
2021/06/03 05:27:09;;;;;;;5.80;5.30;;;;;;;21.27;67.82;99678.53;4955640;29;20554;-73
2021/06/03 05:29:36;;;;;;;5.47;5.07;;;;;;;21.42;67.43;99677.88;4955140;29;20515;-73
2021/06/03 05:32:03;;;;;;;5.70;5.20;;;;;;;21.48;67.09;99676.34;4955203;28;20444;-73
2021/06/03 05:34:29;;;;;;;5.80;5.20;;;;;;;21.53;67.20;99678.66;4955377;28;20883;-72
2021/06/03 05:36:55;;;;;;;5.70;5.20;;;;;;;21.59;66.94;99681.59;4955361;28;20540;-72
2021/06/03 05:39:21;;;;;;;4.93;4.53;;;;;;;21.74;66.38;99684.63;4955427;28;20433;-72
2021/06/03 05:41:49;;;;;;;5.87;5.37;;;;;;;21.64;66.67;99692.97;4954920;28;20450;-73
2021/06/03 05:44:15;;;;;;;5.10;4.67;;;;;;;21.73;66.31;99685.69;4955405;28;20548;-73
2021/06/03 05:46:42;;;;;;;5.20;4.70;;;;;;;21.54;66.72;99686.69;4955227;28;20440;-73
2021/06/03 05:49:10;;;;;;;6.63;6.03;;;;;;;21.32;67.55;99695.34;4952884;28;20460;-74
2021/06/03 05:51:39;;;;;;;5.60;5.10;;;;;;;21.36;67.80;99696.75;4954509;28;20448;-74
2021/06/03 05:54:06;;;;;;;5.70;5.20;;;;;;;21.51;67.38;99691.66;4954901;28;20535;-74
2021/06/03 05:56:33;;;;;;;6.23;5.73;;;;;;;21.06;68.78;99696.13;4954657;28;20527;-73
2021/06/03 05:59:04;;;;;;;5.63;5.10;;;;;;;21.07;69.33;99700.56;4954468;28;20836;-74
2021/06/03 06:01:31;;;;;;;6.23;5.67;;;;;;;20.92;70.04;99699.38;4954452;28;20428;-74
2021/06/03 06:04:11;;;;;;;9.83;6.13;;;;;;;20.91;70.11;99701.25;4954283;29;20468;-74
2021/06/03 06:06:37;;;;;;;6.63;5.73;;;;;;;21.14;69.67;99696.22;4954838;29;20512;-74
2021/06/03 06:09:06;;;;;;;6.23;5.73;;;;;;;21.11;69.43;99703.88;4954851;29;20543;-73
2021/06/03 06:11:34;;;;;;;7.80;5.50;;;;;;;21.24;69.31;99698.88;4953236;28;20240;-74
2021/06/03 06:14:02;;;;;;;5.83;5.33;;;;;;;21.10;70.17;99699.38;4954275;29;20425;-75
2021/06/03 06:16:29;;;;;;;6.20;5.70;;;;;;;20.93;71.02;99704.69;4954045;29;20444;-74
2021/06/03 06:18:55;;;;;;;5.90;5.30;;;;;;;21.20;70.01;99702.94;4954148;29;20989;-74
2021/06/03 06:21:23;;;;;;;5.93;5.43;;;;;;;21.24;69.69;99707.09;4954668;28;20539;-74
2021/06/03 06:23:49;;;;;;;6.40;5.80;;;;;;;21.43;69.13;99698.75;4954049;29;20488;-73
2021/06/03 06:26:16;;;;;;;5.73;5.10;;;;;;;21.58;68.41;99698.22;4943032;28;20826;-74
2021/06/03 06:28:43;;;;;;;5.73;5.23;;;;;;;21.64;68.24;99709.41;4935351;29;20826;-74
2021/06/03 06:31:11;;;;;;;10.93;5.17;;;;;;;21.74;67.84;99708.44;4935338;29;20488;-74
2021/06/03 06:33:38;;;;;;;8.40;5.83;;;;;;;21.81;67.75;99710.38;4935188;29;20432;-73
2021/06/03 06:36:08;;;;;;;6.67;5.97;;;;;;;22.02;66.76;99710.03;4935074;29;20483;-73
2021/06/03 06:38:34;;;;;;;7.03;5.53;;;;;;;22.34;65.89;99713.19;4934930;29;20486;-73
2021/06/03 06:41:01;;;;;;;7.07;5.77;;;;;;;22.34;65.80;99710.44;4934945;29;20452;-73
2021/06/03 06:43:27;;;;;;;6.10;5.40;;;;;;;22.38;65.71;99717.31;4936021;29;20472;-74
2021/06/03 06:45:54;;;;;;;6.57;5.90;;;;;;;22.38;65.56;99714.59;4934828;29;20878;-71
2021/06/03 06:48:21;;;;;;;6.57;5.90;;;;;;;22.39;65.78;99713.59;4935075;29;20962;-72
2021/06/03 06:50:49;;;;;;;8.60;5.73;;;;;;;22.30;66.48;99717.31;4947995;28;20443;-73
2021/06/03 06:53:16;;;;;;;6.30;5.80;;;;;;;22.71;65.23;99723.00;4935085;29;20453;-73
2021/06/03 06:55:43;;;;;;;6.20;5.70;;;;;;;22.97;64.32;99720.19;4934816;29;20802;-73
2021/06/03 06:58:09;;;;;;;7.13;5.80;;;;;;;23.39;62.94;99727.56;4934641;29;20509;-73
2021/06/03 07:00:37;;;;;;;6.60;5.27;;;;;;;23.49;62.52;99726.38;4934313;29;20445;-73
2021/06/03 07:03:06;;;;;;;5.83;5.23;;;;;;;23.38;62.51;99729.44;4941018;29;20464;-73
2021/06/03 07:05:34;;;;;;;7.33;5.30;;;;;;;23.40;62.49;99741.09;4953394;29;20523;-73
2021/06/03 07:08:00;;;;;;;5.60;5.10;;;;;;;23.54;62.33;99734.09;4953771;29;20446;-73
2021/06/03 07:10:26;;;;;;;6.70;5.87;;;;;;;23.72;61.55;99728.44;4953913;29;20527;-73
2021/06/03 07:12:53;;;;;;;7.00;4.90;;;;;;;24.05;60.78;99729.31;4953529;29;20484;-74
2021/06/03 07:15:20;;;;;;;7.37;6.70;;;;;;;23.87;61.25;99729.50;4953794;29;20474;-74
2021/06/03 07:17:46;;;;;;;6.50;5.87;;;;;;;23.94;61.17;99738.78;4953545;29;20557;-73
2021/06/03 07:20:15;;;;;;;5.57;5.07;;;;;;;24.11;60.41;99744.28;4953509;28;20925;-74
2021/06/03 07:22:44;;;;;;;5.53;5.03;;;;;;;24.56;59.17;99737.38;4954926;28;20560;-73
2021/06/03 07:25:13;;;;;;;9.23;5.87;;;;;;;24.92;57.94;99736.91;4957463;29;21047;-73
2021/06/03 07:27:41;;;;;;;6.10;5.13;;;;;;;25.05;57.82;99742.66;4957219;29;20511;-71
2021/06/03 07:30:10;;;;;;;6.10;5.50;;;;;;;25.06;57.69;99738.03;4957124;28;20511;-73
2021/06/03 07:32:36;;;;;;;5.63;5.13;;;;;;;25.00;57.92;99736.84;4957796;29;21278;-74
2021/06/03 07:35:03;;;;;;;5.80;5.30;;;;;;;24.99;57.79;99746.16;4957632;29;20523;-73
2021/06/03 07:37:29;;;;;;;5.63;5.13;;;;;;;25.08;57.57;99738.72;4957016;29;20479;-73
2021/06/03 07:39:56;;;;;;;5.20;4.80;;;;;;;24.92;58.22;99736.91;4957148;28;20428;-73
2021/06/03 07:42:23;;;;;;;5.00;4.60;;;;;;;24.92;58.45;99742.41;4957174;29;20444;-73
2021/06/03 07:44:49;;;;;;;5.87;5.37;;;;;;;24.96;58.27;99746.50;4942109;29;20469;-73
2021/06/03 07:47:16;;;;;;;7.43;5.03;;;;;;;25.11;57.64;99741.97;4938147;29;20557;-73
2021/06/03 07:49:42;;;;;;;5.33;4.93;;;;;;;25.30;57.36;99743.44;4957442;28;20443;-73
2021/06/03 07:52:09;;;;;;;5.20;4.30;;;;;;;25.40;57.07;99751.50;4976701;28;20447;-73
2021/06/03 07:54:35;;;;;;;6.80;4.97;;;;;;;25.47;56.82;99746.13;4975840;28;20435;-73
2021/06/03 07:57:03;;;;;;;5.57;5.07;;;;;;;25.36;57.14;99758.41;4976634;28;20443;-74
2021/06/03 07:59:29;;;;;;;5.47;4.60;;;;;;;25.41;57.20;99752.34;4976767;28;20432;-73
2021/06/03 08:01:56;;;;;;;5.40;4.90;;;;;;;25.45;57.32;99762.81;4975952;28;20427;-73
2021/06/03 08:04:22;;;;;;;6.30;5.10;;;;;;;25.59;56.66;99755.66;4972640;28;20878;-73
2021/06/03 08:06:49;;;;;;;5.40;4.90;;;;;;;25.72;55.81;99764.19;4956684;29;20538;-73
2021/06/03 08:09:16;;;;;;;6.03;4.60;;;;;;;25.93;55.70;99766.31;4956787;29;20460;-72
2021/06/03 08:11:44;;;;;;;5.13;4.63;;;;;;;25.66;55.47;99764.06;4956246;28;21162;-74
2021/06/03 08:14:11;;;;;;;6.23;4.47;;;;;;;25.58;55.96;99765.00;4955020;29;20803;-74
2021/06/03 08:16:38;;;;;;;5.20;4.70;;;;;;;25.79;55.51;99767.06;4956330;29;20847;-74
2021/06/03 08:19:04;;;;;;;5.70;5.20;;;;;;;25.71;55.39;99770.75;4956371;29;20433;-73
2021/06/03 08:21:33;;;;;;;5.37;4.83;;;;;;;25.52;55.85;99760.19;4956329;29;20942;-74
2021/06/03 08:24:00;;;;;;;4.97;4.47;;;;;;;25.22;56.91;99772.94;4956148;29;21002;-72
2021/06/03 08:26:28;;;;;;;5.10;4.70;;;;;;;25.04;57.65;99771.28;4956501;29;20524;-73
2021/06/03 08:28:55;;;;;;;5.50;5.00;;;;;;;24.89;58.52;99767.53;4956057;29;20452;-74
2021/06/03 08:31:22;;;;;;;5.90;5.37;;;;;;;25.06;58.38;99768.34;4955962;29;20424;-73
2021/06/03 08:33:48;;;;;;;6.00;5.50;;;;;;;25.09;58.38;99777.09;4955810;28;20538;-72
2021/06/03 08:36:15;;;;;;;5.30;4.90;;;;;;;25.03;58.53;99775.03;4955873;29;20798;-74
2021/06/03 08:38:41;;;;;;;5.70;5.20;;;;;;;25.09;58.63;99776.25;4956440;29;20467;-74
2021/06/03 08:41:08;;;;;;;5.67;5.17;;;;;;;25.11;58.42;99785.19;4956009;29;20447;-74
2021/06/03 08:43:34;;;;;;;5.33;4.83;;;;;;;25.00;58.53;99783.66;4956140;29;20488;-72
2021/06/03 08:46:02;;;;;;;5.30;4.90;;;;;;;24.78;59.17;99771.53;4956395;29;20764;-73
2021/06/03 08:48:31;;;;;;;5.70;4.50;;;;;;;25.35;57.60;99784.25;4956207;29;20429;-73
2021/06/03 08:51:00;;;;;;;5.30;4.80;;;;;;;25.54;56.63;99781.03;4936526;29;20488;-74
2021/06/03 08:53:27;;;;;;;5.53;4.83;;;;;;;25.67;56.23;99782.34;4954825;29;20445;-75
2021/06/03 08:58:38;;;;;;;5.47;4.90;;;;;;;26.39;54.39;99788.34;4955388;29;20769;-73
2021/06/03 09:01:05;;;;;;;7.40;4.90;;;;;;;26.50;54.05;99784.28;4955187;29;20535;-74
2021/06/03 09:03:35;;;;;;;7.13;4.50;;;;;;;26.82;52.75;99780.31;4955453;29;20555;-74
2021/06/03 09:06:01;;;;;;;5.10;4.60;;;;;;;27.20;51.75;99784.84;4946929;28;20440;-74
2021/06/03 09:08:29;;;;;;;6.13;5.40;;;;;;;27.67;50.61;99778.88;4955568;28;20543;-74
2021/06/03 09:10:57;;;;;;;5.30;4.80;;;;;;;28.36;48.50;99780.22;4955265;29;21271;-74
2021/06/03 09:13:26;;;;;;;7.07;5.80;;;;;;;28.51;47.77;99782.91;4955597;29;20957;-74
2021/06/03 09:15:55;;;;;;;6.60;5.57;;;;;;;28.01;49.32;99780.09;4955333;28;20474;-75
2021/06/03 09:18:30;;;;;;;6.47;5.83;;;;;;;27.38;50.56;99779.81;4953313;29;20432;-73
2021/06/03 09:21:08;;;;;;;5.10;4.60;;;;;;;26.81;52.89;99774.97;4942672;29;20922;-73
2021/06/03 09:23:34;;;;;;;5.93;5.33;;;;;;;25.83;56.39;99784.97;4936129;29;21300;-74
2021/06/03 09:26:06;;;;;;;7.33;5.27;;;;;;;25.51;57.63;99775.03;4936044;29;20465;-73
2021/06/03 09:28:34;;;;;;;6.93;6.30;;;;;;;25.72;56.84;99786.25;4936049;29;20492;-73
2021/06/03 09:31:04;;;;;;;6.50;5.50;;;;;;;25.56;56.87;99778.94;4935713;29;20460;-73
2021/06/03 09:33:48;;;;;;;6.77;6.27;;;;;;;25.60;57.40;99787.72;4935724;29;20501;-73
2021/06/03 09:36:18;;;;;;;6.80;6.20;;;;;;;25.96;56.54;99781.63;4944690;29;20491;-74
2021/06/03 09:38:52;;;;;;;6.67;6.00;;;;;;;26.67;54.40;99779.44;4954488;29;20531;-73
2021/06/03 09:41:19;;;;;;;7.60;6.80;;;;;;;27.15;52.64;99773.53;4954559;29;20922;-72
2021/06/03 09:43:45;;;;;;;6.00;5.40;;;;;;;27.82;50.95;99777.97;4954818;28;20496;-73
2021/06/03 09:46:14;;;;;;;6.73;6.13;;;;;;;28.38;49.33;99780.00;4953764;28;20448;-73
2021/06/03 09:48:43;;;;;;;6.17;5.57;;;;;;;28.75;48.45;99770.50;4953490;29;20507;-73
2021/06/03 09:51:23;;;;;;;5.70;5.20;;;;;;;28.74;47.99;99776.25;4954195;29;20452;-72
2021/06/03 09:53:53;;;;;;;6.33;5.73;;;;;;;28.33;49.59;99761.22;4954134;29;20467;-73
2021/06/03 09:56:22;;;;;;;6.07;5.47;;;;;;;27.55;51.32;99771.31;4954768;29;20895;-72
2021/06/03 09:58:48;;;;;;;5.93;5.37;;;;;;;27.62;51.66;99775.84;4954252;29;20521;-73
2021/06/03 10:01:14;;;;;;;5.30;4.80;;;;;;;27.59;51.60;99770.72;4954538;28;20883;-73
2021/06/03 10:03:50;;;;;;;5.90;5.40;;;;;;;27.33;52.26;99764.88;4954753;29;20492;-74
2021/06/03 10:06:16;;;;;;;5.37;4.87;;;;;;;27.91;50.68;99768.53;4954689;29;20438;-75
2021/06/03 10:08:48;;;;;;;5.50;5.00;;;;;;;28.33;49.28;99771.44;4951242;28;20571;-74
2021/06/03 10:11:45;;;;;;;9.07;5.03;;;;;;;28.82;47.90;99760.31;4954198;28;20957;-75
2021/06/03 10:14:15;;;;;;;5.30;4.90;;;;;;;29.03;47.66;99769.59;4954664;29;20428;-74
2021/06/03 10:16:42;;;;;;;8.33;5.17;;;;;;;29.21;46.63;99767.16;4954346;28;20429;-75
2021/06/03 10:19:19;;;;;;;4.90;4.60;;;;;;;29.06;46.90;99763.66;4954359;28;20495;-74
2021/06/03 10:22:10;;;;;;;5.63;5.00;;;;;;;29.08;46.85;99759.66;4949711;28;20475;-73
2021/06/03 10:25:14;;;;;;;5.87;4.80;;;;;;;29.41;46.81;99770.00;4935646;29;20806;-74
2021/06/03 10:27:43;;;;;;;5.87;5.30;;;;;;;29.02;47.09;99760.44;4935443;29;20440;-73
2021/06/03 10:30:13;;;;;;;5.10;4.70;;;;;;;28.95;47.16;99753.16;4934832;29;20966;-73
2021/06/03 10:32:40;;;;;;;6.97;4.90;;;;;;;29.16;46.95;99755.84;4935524;29;20457;-74
2021/06/03 10:35:09;;;;;;;5.40;4.63;;;;;;;29.10;46.71;99763.06;4935445;29;20465;-73
2021/06/03 10:37:36;;;;;;;6.73;5.10;;;;;;;29.21;46.14;99760.75;4935136;29;20439;-73
2021/06/03 10:40:04;;;;;;;4.73;4.40;;;;;;;29.61;45.05;99758.97;4934861;29;20456;-73
2021/06/03 10:42:32;;;;;;;5.03;4.63;;;;;;;29.47;45.11;99749.78;4934932;29;20473;-73
2021/06/03 10:44:58;;;;;;;5.13;4.73;;;;;;;29.43;45.90;99755.94;4944808;29;20535;-74
2021/06/03 10:47:24;;;;;;;6.67;4.77;;;;;;;29.72;44.89;99760.34;4953830;29;20520;-74
2021/06/03 10:49:52;;;;;;;5.30;4.80;;;;;;;29.79;44.40;99754.78;4953937;29;20480;-75
2021/06/03 10:52:18;;;;;;;5.27;4.77;;;;;;;29.78;44.04;99753.94;4934434;29;20452;-75
2021/06/03 10:54:52;;;;;;;5.00;4.60;;;;;;;29.93;43.87;99745.41;4935157;29;20436;-73
2021/06/03 10:57:21;;;;;;;4.50;4.10;;;;;;;29.53;45.11;99750.84;4934430;29;20434;-73
2021/06/03 10:59:50;;;;;;;5.17;4.77;;;;;;;29.89;44.92;99744.97;4934660;29;20501;-74
2021/06/03 11:02:17;;;;;;;4.90;4.50;;;;;;;30.36;43.41;99736.69;4934949;29;20456;-73
2021/06/03 11:04:47;;;;;;;4.90;4.50;;;;;;;30.04;43.84;99750.34;4934655;29;20536;-73
2021/06/03 11:07:15;;;;;;;4.90;4.37;;;;;;;30.13;43.57;99751.84;4936173;29;20449;-72
2021/06/03 11:09:44;;;;;;;6.00;4.93;;;;;;;30.13;43.64;99751.00;4934512;29;20508;-72
2021/06/03 11:12:16;;;;;;;4.87;4.43;;;;;;;30.08;43.56;99745.22;4934204;29;20531;-72
2021/06/03 11:15:10;;;;;;;6.07;4.80;;;;;;;29.94;43.89;99749.91;4934520;29;20429;-73
2021/06/03 11:17:54;;;;;;;6.67;4.37;;;;;;;29.76;44.77;99749.66;4951935;29;20822;-73
2021/06/03 11:20:48;;;;;;;6.70;4.47;;;;;;;29.97;44.08;99738.38;4953426;29;20433;-73
2021/06/03 11:23:46;;;;;;;4.50;3.80;;;;;;;30.01;43.90;99749.88;4953576;29;20436;-74
2021/06/03 11:26:51;;;;;;;7.03;4.93;;;;;;;29.88;44.22;99746.03;4953362;29;20512;-75
2021/06/03 11:29:19;;;;;;;5.30;4.80;;;;;;;30.28;43.67;99732.22;4951892;29;20875;-73
2021/06/03 11:31:52;;;;;;;7.37;6.60;;;;;;;30.69;42.92;99733.88;4939201;29;20451;-74
2021/06/03 11:34:21;;;;;;;5.00;4.50;;;;;;;30.22;43.58;99729.41;4952769;29;20455;-73
2021/06/03 11:36:57;;;;;;;4.30;4.00;;;;;;;30.20;44.04;99740.72;4953802;28;20460;-72
2021/06/03 11:39:40;;;;;;;4.87;4.03;;;;;;;30.22;43.00;99733.03;4951032;28;20460;-74
2021/06/03 11:42:24;;;;;;;4.40;4.00;;;;;;;30.54;42.04;99733.25;4934313;29;20426;-73